»·PEaware :: SWA121 KDEN-KPHX

SWA121 :: KDEN-KPHX

FLIGHT INFORMATION

Flight Status: Arrived
Operator:
Southwest Airlines
More flights by this operator :: More flights under this callsign
Pilot: Andrew M. (139)
Aircraft: BOEING 737-800
(B738)
More flights by this aircraft type
Origin: KDEN Denver Intl
United States
Destination: KPHX Phoenix Sky Harbor Intl
United States
More flights between these airports :: More routes between these airports
Route: +SOLAR4 DAAYE GUP EAGUL6
File this flight plan on PilotEdge
Remarks: PBN / A1B1C1D1S1S2 DOF / 181219 REG / N608BT EET / KZAB0041 OPR / SWA PER / C RMK / TCAS SIMBRIEF
Altitude:
(Current/Filed)
36,000ft
Speed:
(Current/Filed)
446kts
Departed: 18-Dec-18 06:21 PM
Arrived: 18-Dec-18 07:41 PM
Distance/Time
Traveled:
523nm/1:20
Distance/Time
To Go:
Arrived

Flight Plot

Page will automatically refresh every two minutes.

Flight plan parsing failed; only flown route is shown


Map Options




Map Legend


Flown Route
Filed Route
Departure Airport
Arrival Airport
Navaid (VOR, NDB)
Fix

Horizontal Profiles

Position Reports

Time Latitude Longitude Heading Altitude Ground
Speed
18-Dec-18 17:13 39.863588 -104.677334 177 5442ft 0kts
18-Dec-18 17:14 39.863588 -104.677334 177 5442ft 0kts
18-Dec-18 17:21 39.863588 -104.677334 177 5442ft 0kts
18-Dec-18 17:22 39.863588 -104.677334 177 5442ft 0kts
18-Dec-18 17:23 39.863588 -104.677334 177 5442ft 0kts
18-Dec-18 17:24 39.863588 -104.677334 177 5442ft 0kts
18-Dec-18 17:25 39.863588 -104.677334 177 5442ft 0kts
18-Dec-18 17:26 39.863588 -104.677334 177 5442ft 0kts
18-Dec-18 17:27 39.863588 -104.677334 177 5442ft 0kts
18-Dec-18 17:28 39.863588 -104.677334 177 5442ft 0kts
18-Dec-18 17:29 39.863588 -104.677334 177 5442ft 0kts
18-Dec-18 17:30 39.863588 -104.677334 177 5442ft 0kts
18-Dec-18 17:31 39.863588 -104.677334 177 5442ft 0kts
18-Dec-18 17:32 39.863588 -104.677334 177 5442ft 0kts
18-Dec-18 17:33 39.863588 -104.677334 177 5442ft 0kts
18-Dec-18 17:34 39.863588 -104.677334 177 5442ft 0kts
18-Dec-18 17:34 39.863588 -104.677334 177 5442ft 0kts
18-Dec-18 17:36 39.863588 -104.677334 177 5442ft 0kts
18-Dec-18 17:37 39.863588 -104.677334 177 5442ft 0kts
18-Dec-18 17:38 39.863588 -104.677334 177 5442ft 0kts
18-Dec-18 17:39 39.863588 -104.677334 177 5442ft 0kts
18-Dec-18 17:39 39.863588 -104.677334 177 5442ft 0kts
18-Dec-18 17:40 39.863588 -104.677334 177 5442ft 0kts
18-Dec-18 17:41 39.863588 -104.677334 177 5442ft 0kts
18-Dec-18 17:42 39.863588 -104.677334 177 5442ft 0kts
18-Dec-18 17:43 39.863588 -104.677334 177 5442ft 0kts
18-Dec-18 17:44 39.863588 -104.677334 177 5442ft 0kts
18-Dec-18 17:45 39.863588 -104.677334 177 5442ft 0kts
18-Dec-18 17:46 39.863588 -104.677334 177 5442ft 0kts
18-Dec-18 17:47 39.863588 -104.677334 177 5442ft 0kts
18-Dec-18 17:48 39.863588 -104.677334 177 5442ft 0kts
18-Dec-18 17:49 39.863588 -104.677334 177 5442ft 0kts
18-Dec-18 17:50 39.863588 -104.677334 177 5442ft 0kts
18-Dec-18 17:51 39.863588 -104.677334 177 5442ft 0kts
18-Dec-18 17:52 39.863588 -104.677334 177 5442ft 0kts
18-Dec-18 17:53 39.863588 -104.677334 177 5442ft 0kts
18-Dec-18 17:54 39.863588 -104.677334 177 5442ft 0kts
18-Dec-18 17:55 39.863588 -104.677334 177 5442ft 0kts
18-Dec-18 17:56 39.863588 -104.677334 177 5442ft 0kts
18-Dec-18 17:57 39.863588 -104.677334 177 5442ft 0kts
18-Dec-18 17:58 39.863588 -104.677334 177 5442ft 0kts
18-Dec-18 17:59 39.863588 -104.677334 177 5442ft 0kts
18-Dec-18 18:00 39.863588 -104.677334 177 5442ft 0kts
18-Dec-18 18:01 39.863588 -104.677334 177 5442ft 0kts
18-Dec-18 18:02 39.863588 -104.677334 177 5442ft 0kts
18-Dec-18 18:03 39.863588 -104.677334 177 5442ft 0kts
18-Dec-18 18:04 39.863906 -104.677398 150 5442ft 2kts
18-Dec-18 18:05 39.864154 -104.677952 86 5442ft 1kts
18-Dec-18 18:06 39.864152 -104.677988 88 5441ft 0kts
18-Dec-18 18:07 39.864152 -104.677988 88 5441ft 0kts
18-Dec-18 18:08 39.864158 -104.677924 85 5441ft 0kts
18-Dec-18 18:09 39.864211 -104.677851 5 5442ft 0kts
18-Dec-18 18:10 39.864187 -104.680786 272 5441ft 15kts
18-Dec-18 18:11 39.862900 -104.683859 181 5441ft 8kts
18-Dec-18 18:12 39.860779 -104.683924 178 5441ft 8kts
18-Dec-18 18:13 39.857535 -104.683974 179 5442ft 15kts
18-Dec-18 18:14 39.853386 -104.684025 181 5442ft 13kts
18-Dec-18 18:15 39.850147 -104.684048 180 5442ft 10kts
18-Dec-18 18:16 39.847538 -104.684073 179 5441ft 8kts
18-Dec-18 18:17 39.844956 -104.684107 180 5441ft 9kts
18-Dec-18 18:18 39.842405 -104.684142 180 5441ft 8kts
18-Dec-18 18:19 39.840668 -104.685494 270 5442ft 24kts
18-Dec-18 18:20 39.841069 -104.726199 270 5587ft 164kts
18-Dec-18 18:21 39.838595 -104.785836 249 6784ft 192kts
18-Dec-18 18:22 39.812718 -104.865174 237 7686ft 271kts
18-Dec-18 18:23 39.755281 -104.925760 194 10115ft 284kts
18-Dec-18 18:24 39.669734 -104.922407 162 11535ft 338kts
18-Dec-18 18:25 39.580572 -104.874724 153 13815ft 356kts
18-Dec-18 18:26 39.489516 -104.824718 176 16100ft 364kts
18-Dec-18 18:27 39.388672 -104.841873 208 18175ft 370kts
18-Dec-18 18:28 39.298063 -104.907400 213 20167ft 380kts
18-Dec-18 18:29 39.212423 -104.988604 223 21994ft 387kts
18-Dec-18 18:30 39.125154 -105.073856 210 23676ft 402kts
18-Dec-18 18:31 39.024240 -105.138150 209 25225ft 412kts
18-Dec-18 18:32 38.920732 -105.204487 209 26666ft 421kts
18-Dec-18 18:33 38.817324 -105.270607 209 27947ft 430kts
18-Dec-18 18:34 38.708977 -105.339700 209 29151ft 438kts
18-Dec-18 18:35 38.598923 -105.409634 210 30211ft 447kts
18-Dec-18 18:36 38.486482 -105.480769 210 31354ft 452kts
18-Dec-18 18:37 38.373423 -105.552045 210 32557ft 453kts
18-Dec-18 18:38 38.260648 -105.623103 211 33681ft 453kts
18-Dec-18 18:39 38.151909 -105.691235 210 34712ft 452kts
18-Dec-18 18:40 38.039010 -105.761895 213 35653ft 451kts
18-Dec-18 18:41 37.945420 -105.861754 232 36067ft 449kts
18-Dec-18 18:42 37.858453 -105.973757 231 36107ft 456kts
18-Dec-18 18:43 37.768795 -106.087602 231 36207ft 458kts
18-Dec-18 18:44 37.679035 -106.201076 231 36225ft 458kts
18-Dec-18 18:45 37.588823 -106.314778 231 36225ft 459kts
18-Dec-18 18:46 37.498386 -106.428378 232 36228ft 462kts
18-Dec-18 18:47 37.407313 -106.542375 232 36227ft 462kts
18-Dec-18 18:48 37.318281 -106.653464 232 36230ft 466kts
18-Dec-18 18:49 37.224850 -106.769708 232 36215ft 466kts
18-Dec-18 18:50 37.132437 -106.884290 232 36156ft 467kts
18-Dec-18 18:51 37.039930 -106.998621 233 36122ft 470kts
18-Dec-18 18:52 36.946953 -107.113130 233 36111ft 471kts
18-Dec-18 18:53 36.854097 -107.227074 233 36092ft 470kts
18-Dec-18 18:54 36.760026 -107.342126 234 36093ft 474kts
18-Dec-18 18:55 36.665859 -107.456835 234 36094ft 476kts
18-Dec-18 18:56 36.571014 -107.571970 234 36108ft 477kts
18-Dec-18 18:57 36.476164 -107.686760 234 36136ft 482kts
18-Dec-18 18:58 36.380489 -107.802169 234 36140ft 481kts
18-Dec-18 18:59 36.283623 -107.918615 235 36142ft 484kts
18-Dec-18 19:00 36.186793 -108.034523 235 36146ft 486kts
18-Dec-18 19:01 36.090031 -108.149916 235 36157ft 485kts
18-Dec-18 19:02 35.992593 -108.265689 235 36166ft 485kts
18-Dec-18 19:03 35.895664 -108.380438 235 36186ft 485kts
18-Dec-18 19:04 35.797801 -108.495873 235 36180ft 486kts
18-Dec-18 19:05 35.700038 -108.610764 235 36182ft 486kts
18-Dec-18 19:06 35.603168 -108.724256 235 36190ft 488kts
18-Dec-18 19:07 35.505047 -108.838796 235 36192ft 488kts
18-Dec-18 19:08 35.410801 -108.956860 239 36189ft 483kts
18-Dec-18 19:09 35.318842 -109.076070 239 36198ft 483kts
18-Dec-18 19:10 35.226226 -109.195503 239 36214ft 483kts
18-Dec-18 19:11 35.133763 -109.314288 239 36218ft 484kts
18-Dec-18 19:12 35.040869 -109.433165 239 36219ft 484kts
18-Dec-18 19:13 34.948155 -109.551362 239 36222ft 484kts
18-Dec-18 19:14 34.855338 -109.669299 238 36200ft 485kts
18-Dec-18 19:15 34.761981 -109.788168 238 36198ft 488kts
18-Dec-18 19:16 34.683803 -109.915360 259 36203ft 450kts
18-Dec-18 19:17 34.634659 -110.053494 259 36204ft 445kts
18-Dec-18 19:18 34.583457 -110.190277 259 36215ft 444kts
18-Dec-18 19:19 34.532187 -110.326780 259 35804ft 449kts
18-Dec-18 19:20 34.479931 -110.464872 259 33217ft 435kts
18-Dec-18 19:21 34.427850 -110.602919 258 30106ft 470kts
18-Dec-18 19:22 34.373999 -110.743900 255 27234ft 452kts
18-Dec-18 19:23 34.299851 -110.867388 233 24432ft 458kts
18-Dec-18 19:24 34.214117 -110.976681 234 21655ft 438kts
18-Dec-18 19:25 34.132545 -111.081700 233 18634ft 430kts
18-Dec-18 19:26 34.051953 -111.185236 232 15384ft 424kts
18-Dec-18 19:28 33.977022 -111.280918 232 13073ft 363kts
18-Dec-18 19:29 33.912302 -111.363538 232 11491ft 317kts
18-Dec-18 19:30 33.851540 -111.430577 218 10401ft 286kts
18-Dec-18 19:31 33.787581 -111.484568 218 9409ft 274kts
18-Dec-18 19:32 33.722912 -111.540082 217 8945ft 289kts
18-Dec-18 19:33 33.658399 -111.595363 217 7738ft 277kts
18-Dec-18 19:34 33.595786 -111.648163 216 5922ft 270kts
18-Dec-18 19:35 33.535508 -111.698656 215 4481ft 259kts
18-Dec-18 19:36 33.477116 -111.747942 215 3632ft 247kts
18-Dec-18 19:37 33.430956 -111.809179 240 3654ft 247kts
18-Dec-18 19:38 33.428831 -111.885609 269 3056ft 227kts
18-Dec-18 19:39 33.428805 -111.955998 269 1907ft 187kts
18-Dec-18 19:40 33.428848 -112.008937 269 1128ft 147kts
18-Dec-18 19:41 33.429489 -112.026960 27 1113ft 9kts
18-Dec-18 19:42 33.430102 -112.026911 0 1113ft 6kts

Navigation Log

Ident Type
Flight plan parsing failed, navigation log unavailable